createdAt,value
2019-05-21T00:00:42.039Z,77.50
2019-05-21T00:03:10.475Z,77.50
2019-05-21T00:05:39.007Z,77.40
2019-05-21T00:08:07.439Z,77.60
2019-05-21T00:10:36.347Z,77.60
2019-05-21T00:13:05.307Z,77.60
2019-05-21T00:15:33.737Z,77.70
2019-05-21T00:18:02.164Z,77.70
2019-05-21T00:20:30.734Z,77.70
2019-05-21T00:22:59.272Z,77.70
2019-05-21T00:25:27.739Z,77.70
2019-05-21T00:28:11.203Z,77.80
2019-05-21T00:31:16.064Z,77.80
2019-05-21T00:34:20.792Z,77.80
2019-05-21T00:37:25.901Z,77.70
2019-05-21T00:40:30.908Z,77.60
2019-05-21T00:42:59.343Z,77.70
2019-05-21T00:45:27.902Z,77.60
2019-05-21T00:47:56.346Z,77.60
2019-05-21T00:50:24.783Z,77.80
2019-05-21T00:52:53.425Z,77.80
2019-05-21T00:55:21.859Z,77.80
2019-05-21T00:57:50.480Z,77.90
2019-05-21T01:00:18.980Z,77.90
2019-05-21T01:02:47.510Z,78.00
2019-05-21T01:05:18.723Z,78.80
2019-05-21T01:07:47.166Z,78.10
2019-05-21T01:10:15.675Z,78.20
2019-05-21T01:12:44.223Z,78.30
2019-05-21T01:15:12.769Z,78.50
2019-05-21T01:17:41.218Z,78.60
2019-05-21T01:20:09.786Z,78.50
2019-05-21T01:22:38.225Z,78.50
2019-05-21T01:25:07.313Z,78.60
2019-05-21T01:27:35.748Z,78.70
2019-05-21T01:30:06.632Z,79.50
2019-05-21T01:32:35.070Z,78.60
2019-05-21T01:35:16.554Z,78.70
2019-05-21T01:37:35.950Z,78.70
2019-05-21T01:40:06.059Z,78.70
2019-05-21T01:42:34.686Z,78.70
2019-05-21T01:45:03.299Z,78.70
2019-05-21T01:47:31.727Z,78.80
2019-05-21T01:50:00.164Z,78.70
2019-05-21T01:52:28.582Z,78.70
2019-05-21T01:54:57.062Z,78.70
2019-05-21T01:57:25.591Z,78.70
2019-05-21T01:59:54.010Z,78.70
2019-05-21T02:02:22.871Z,78.80
2019-05-21T02:04:51.393Z,78.60
2019-05-21T02:07:19.880Z,79.70
2019-05-21T02:09:57.335Z,78.80
2019-05-21T02:12:26.193Z,78.70
2019-05-21T02:14:54.667Z,78.70
2019-05-21T02:17:23.212Z,78.70
2019-05-21T02:19:51.679Z,78.70
2019-05-21T02:22:20.113Z,78.70
2019-05-21T02:24:48.710Z,78.70
2019-05-21T02:27:17.140Z,78.70
2019-05-21T02:29:45.609Z,78.80
2019-05-21T02:32:14.055Z,78.90
2019-05-21T02:34:42.554Z,78.90
2019-05-21T02:37:10.978Z,78.80
2019-05-21T02:39:39.423Z,78.90
2019-05-21T02:42:07.861Z,78.80
2019-05-21T02:44:36.370Z,79.00
2019-05-21T02:47:05.443Z,79.00
2019-05-21T02:49:34.028Z,78.90
2019-05-21T02:52:02.458Z,78.90
2019-05-21T02:54:41.193Z,78.90
2019-05-21T02:57:03.483Z,79.00
2019-05-21T02:59:31.915Z,78.90
2019-05-21T03:02:01.997Z,78.90
2019-05-21T03:04:30.420Z,78.90
2019-05-21T03:07:16.695Z,79.00
2019-05-21T03:09:46.438Z,79.00
2019-05-21T03:12:15.506Z,79.10
2019-05-21T03:14:45.780Z,79.00
2019-05-21T03:17:14.243Z,79.20
2019-05-21T03:19:42.740Z,79.10
2019-05-21T03:22:11.318Z,79.10
2019-05-21T03:24:39.745Z,79.20
2019-05-21T03:27:08.191Z,79.20
2019-05-21T03:29:36.653Z,79.20
2019-05-21T03:32:05.084Z,79.20
2019-05-21T03:34:33.513Z,79.30
2019-05-21T03:37:01.946Z,79.20
2019-05-21T03:39:33.216Z,79.30
2019-05-21T03:42:01.660Z,79.20
2019-05-21T03:44:30.175Z,79.20
2019-05-21T03:46:58.604Z,79.30
2019-05-21T03:49:27.035Z,79.30
2019-05-21T03:51:55.545Z,79.20
2019-05-21T03:54:24.279Z,79.20
2019-05-21T03:56:52.758Z,79.40
2019-05-21T03:59:21.589Z,79.30
2019-05-21T04:01:50.015Z,79.30
2019-05-21T04:04:18.441Z,79.20
2019-05-21T04:06:51.816Z,79.30
2019-05-21T04:09:17.124Z,79.30
2019-05-21T04:11:45.554Z,79.50
2019-05-21T04:14:15.776Z,79.50
2019-05-21T04:16:54.890Z,79.40
2019-05-21T04:19:24.989Z,79.70
2019-05-21T04:21:53.470Z,79.50
2019-05-21T04:24:22.119Z,79.60
2019-05-21T04:26:50.614Z,79.50
2019-05-21T04:29:19.048Z,79.50
2019-05-21T04:31:47.618Z,79.50
2019-05-21T04:34:16.150Z,79.50
2019-05-21T04:36:44.590Z,79.60
2019-05-21T04:39:13.142Z,79.70
2019-05-21T04:41:41.646Z,79.60
2019-05-21T04:44:10.087Z,79.60
2019-05-21T04:46:38.591Z,79.50
2019-05-21T04:49:07.066Z,79.70
2019-05-21T04:51:35.480Z,79.50
2019-05-21T04:54:03.980Z,79.50
2019-05-21T04:56:32.567Z,79.50
2019-05-21T04:59:00.992Z,79.50
2019-05-21T05:01:29.553Z,79.40
2019-05-21T05:03:58.043Z,79.40
2019-05-21T05:06:26.546Z,79.40
2019-05-21T05:08:54.999Z,79.40
2019-05-21T05:11:23.640Z,79.50
2019-05-21T05:13:52.074Z,79.50
2019-05-21T05:16:20.494Z,79.30
2019-05-21T05:18:48.930Z,79.50
2019-05-21T05:21:17.357Z,79.40
2019-05-21T05:23:45.787Z,79.60
2019-05-21T05:26:14.274Z,79.50
2019-05-21T05:28:42.750Z,79.50
2019-05-21T05:31:14.937Z,79.50
2019-05-21T05:33:41.371Z,79.60
2019-05-21T05:36:09.852Z,79.50
2019-05-21T05:38:38.402Z,79.50
2019-05-21T05:41:06.841Z,79.50
2019-05-21T05:43:35.334Z,79.50
2019-05-21T05:46:03.842Z,79.50
2019-05-21T05:48:33.919Z,79.60
2019-05-21T05:51:04.021Z,79.70
2019-05-21T05:53:34.090Z,79.50
2019-05-21T05:56:03.275Z,79.50
2019-05-21T05:58:31.695Z,79.50
2019-05-21T06:01:00.125Z,79.50
2019-05-21T06:03:29.054Z,79.60
2019-05-21T06:05:57.562Z,79.50
2019-05-21T06:08:25.990Z,79.50
2019-05-21T06:10:54.713Z,79.60
2019-05-21T06:13:23.136Z,79.60
2019-05-21T06:15:51.564Z,79.70
2019-05-21T06:18:20.006Z,79.80
2019-05-21T06:20:48.427Z,79.70
2019-05-21T06:23:16.913Z,79.80
2019-05-21T06:25:45.427Z,79.70
2019-05-21T06:28:13.876Z,79.60
2019-05-21T06:30:42.335Z,79.70
2019-05-21T06:33:10.919Z,79.70
2019-05-21T06:35:39.342Z,79.80
2019-05-21T06:38:17.112Z,79.80
2019-05-21T06:40:38.544Z,79.80
2019-05-21T06:43:07.269Z,80.00
2019-05-21T06:45:35.703Z,80.00
2019-05-21T06:48:04.316Z,80.00
2019-05-21T06:50:32.731Z,80.00
2019-05-21T06:53:03.721Z,80.00
2019-05-21T06:55:32.202Z,80.20
2019-05-21T06:58:00.634Z,80.00
2019-05-21T07:00:29.070Z,80.10
2019-05-21T07:02:57.589Z,80.00
2019-05-21T07:05:26.014Z,80.10
2019-05-21T07:07:54.443Z,80.00
2019-05-21T07:10:22.975Z,80.00
2019-05-21T07:12:51.402Z,80.00
2019-05-21T07:15:19.871Z,80.10
2019-05-21T07:17:48.398Z,79.90
2019-05-21T07:20:17.566Z,79.90
2019-05-21T07:22:46.069Z,79.80
2019-05-21T07:25:16.224Z,79.90
2019-05-21T07:27:44.762Z,80.00
2019-05-21T07:30:13.684Z,80.00
2019-05-21T07:32:42.443Z,80.10
2019-05-21T07:35:11.753Z,80.10
2019-05-21T07:37:40.195Z,80.30
2019-05-21T07:40:09.425Z,80.20
2019-05-21T07:42:37.922Z,80.20
2019-05-21T07:45:07.253Z,80.20
2019-05-21T07:47:35.716Z,80.20
2019-05-21T07:50:05.638Z,80.30
2019-05-21T07:52:34.063Z,80.30
2019-05-21T07:55:02.576Z,80.40
2019-05-21T07:57:30.997Z,80.40
2019-05-21T07:59:59.447Z,80.20
2019-05-21T08:02:27.923Z,80.50
2019-05-21T08:04:56.455Z,80.40
2019-05-21T08:07:25.199Z,80.40
2019-05-21T08:09:53.758Z,80.30
2019-05-21T08:12:37.469Z,80.40
2019-05-21T08:14:52.336Z,80.30
2019-05-21T08:17:20.797Z,80.30
2019-05-21T08:19:49.228Z,80.20
2019-05-21T08:22:17.672Z,80.30
2019-05-21T08:24:46.121Z,80.20
2019-05-21T08:27:14.627Z,80.30
2019-05-21T08:29:43.094Z,80.20
2019-05-21T08:32:11.687Z,80.20
2019-05-21T08:34:40.138Z,80.20
2019-05-21T08:37:08.691Z,80.20
2019-05-21T08:39:37.133Z,80.20
2019-05-21T08:42:05.836Z,80.20
2019-05-21T08:44:34.400Z,80.20
2019-05-21T08:47:02.919Z,81.10
2019-05-21T08:49:31.387Z,80.20
2019-05-21T08:51:59.899Z,80.30
2019-05-21T08:54:46.395Z,80.10
2019-05-21T08:57:14.865Z,80.10
2019-05-21T08:59:43.297Z,80.10
2019-05-21T09:02:11.815Z,80.70
2019-05-21T09:04:46.374Z,80.00
2019-05-21T09:07:10.458Z,80.00
2019-05-21T09:09:49.861Z,79.90
2019-05-21T09:12:11.189Z,79.80
2019-05-21T09:14:39.599Z,79.70
2019-05-21T09:17:08.050Z,79.60
2019-05-21T09:19:36.899Z,79.50
2019-05-21T09:22:05.628Z,79.60
2019-05-21T09:24:35.132Z,79.50
2019-05-21T09:27:03.631Z,79.50
2019-05-21T09:29:32.055Z,79.50
2019-05-21T09:32:00.499Z,79.50
2019-05-21T09:34:28.947Z,79.50
2019-05-21T09:36:57.442Z,79.50
2019-05-21T09:39:26.078Z,79.40
2019-05-21T09:41:54.505Z,79.30
2019-05-21T09:44:22.931Z,79.20
2019-05-21T09:46:51.467Z,79.00
2019-05-21T09:49:19.890Z,79.00
2019-05-21T09:51:48.324Z,79.10
2019-05-21T09:54:16.768Z,79.00
2019-05-21T09:56:45.199Z,78.80
2019-05-21T09:59:18.266Z,78.80
2019-05-21T10:01:50.915Z,78.80
2019-05-21T10:04:19.357Z,78.80
2019-05-21T10:06:47.840Z,78.70
2019-05-21T10:09:35.624Z,78.70
2019-05-21T10:12:04.571Z,78.50
2019-05-21T10:14:35.892Z,78.50
2019-05-21T10:17:04.473Z,78.60
2019-05-21T10:19:32.901Z,78.50
2019-05-21T10:22:01.336Z,78.60
2019-05-21T10:24:29.858Z,78.00
2019-05-21T10:26:58.342Z,78.50
2019-05-21T10:29:26.770Z,78.30
2019-05-21T10:31:55.279Z,78.30
2019-05-21T10:34:23.707Z,78.20
2019-05-21T10:36:52.205Z,78.30
2019-05-21T10:39:20.739Z,78.30
2019-05-21T10:41:49.170Z,78.30
2019-05-21T10:44:17.663Z,78.20
2019-05-21T10:46:46.174Z,78.20
2019-05-21T10:49:14.600Z,78.00
2019-05-21T10:51:43.061Z,78.00
2019-05-21T10:54:11.499Z,77.90
2019-05-21T10:56:47.899Z,77.60
2019-05-21T10:59:10.160Z,77.70
2019-05-21T11:01:43.219Z,77.50
2019-05-21T11:04:13.290Z,78.20
2019-05-21T11:06:43.706Z,77.40
2019-05-21T11:09:16.330Z,77.30
2019-05-21T11:11:44.895Z,77.50
2019-05-21T11:14:13.596Z,77.30
2019-05-21T11:16:42.107Z,77.10
2019-05-21T11:19:10.527Z,77.00
2019-05-21T11:21:38.952Z,77.00
2019-05-21T11:24:07.831Z,77.00
2019-05-21T11:26:36.263Z,77.00
2019-05-21T11:29:05.134Z,76.70
2019-05-21T11:31:33.573Z,76.70
2019-05-21T11:34:02.184Z,76.40
2019-05-21T11:36:30.668Z,76.50
2019-05-21T11:38:59.116Z,76.50
2019-05-21T11:41:27.535Z,76.30
2019-05-21T11:43:55.962Z,76.00
2019-05-21T11:46:24.554Z,75.90
2019-05-21T11:48:52.983Z,76.10
2019-05-21T11:51:21.467Z,76.20
2019-05-21T11:53:49.902Z,75.90
2019-05-21T11:56:18.372Z,75.80
2019-05-21T11:58:47.067Z,75.80
2019-05-21T12:01:15.559Z,75.70
2019-05-21T12:03:44.064Z,75.60
2019-05-21T12:06:12.555Z,75.30
2019-05-21T12:08:55.624Z,75.30
2019-05-21T12:11:11.269Z,75.40
2019-05-21T12:13:39.747Z,75.20
2019-05-21T12:16:08.611Z,75.80
2019-05-21T12:18:37.012Z,74.80
2019-05-21T12:21:05.453Z,74.80
2019-05-21T12:23:33.892Z,74.60
2019-05-21T12:26:02.351Z,74.40
2019-05-21T12:28:30.768Z,74.50
2019-05-21T12:30:59.281Z,74.30
2019-05-21T12:33:27.713Z,74.30
2019-05-21T12:35:56.134Z,74.30
2019-05-21T12:38:24.588Z,74.30
2019-05-21T12:40:53.083Z,74.30
2019-05-21T12:43:21.517Z,74.30
2019-05-21T12:45:50.317Z,74.20
2019-05-21T12:48:18.963Z,74.30
2019-05-21T12:50:47.423Z,74.30
2019-05-21T12:53:16.632Z,74.10
2019-05-21T12:55:45.333Z,74.10
2019-05-21T12:58:13.816Z,74.10
2019-05-21T13:00:42.524Z,74.00
2019-05-21T13:03:11.113Z,73.90
2019-05-21T13:05:39.789Z,73.90
2019-05-21T13:08:08.243Z,74.10
2019-05-21T13:10:36.784Z,75.10
2019-05-21T13:13:05.575Z,74.10
2019-05-21T13:15:34.128Z,74.20
2019-05-21T13:18:02.835Z,74.10
2019-05-21T13:20:31.262Z,74.10
2019-05-21T13:22:59.802Z,74.00
2019-05-21T13:25:28.226Z,73.90
2019-05-21T13:27:57.765Z,73.90
2019-05-21T13:30:26.671Z,73.70
2019-05-21T13:32:55.095Z,73.60
2019-05-21T13:35:23.745Z,73.70
2019-05-21T13:37:52.341Z,73.70
2019-05-21T13:40:22.496Z,73.70
2019-05-21T13:42:50.930Z,73.80
2019-05-21T13:45:19.375Z,73.80
2019-05-21T13:47:47.799Z,74.00
2019-05-21T13:50:17.120Z,73.80
2019-05-21T13:52:45.564Z,74.30
2019-05-21T13:55:15.620Z,73.60
2019-05-21T13:57:44.105Z,73.50
2019-05-21T14:00:15.171Z,73.40
2019-05-21T14:02:43.715Z,73.50
2019-05-21T14:05:12.482Z,73.50
2019-05-21T14:07:41.333Z,74.40
2019-05-21T14:10:15.282Z,73.40
2019-05-21T14:12:40.943Z,73.40
2019-05-21T14:15:09.725Z,73.20
2019-05-21T14:17:38.125Z,73.20
2019-05-21T14:20:09.076Z,73.40
2019-05-21T14:22:37.542Z,73.30
2019-05-21T14:25:07.020Z,73.40
2019-05-21T14:27:44.433Z,73.30
2019-05-21T14:30:07.668Z,73.20
2019-05-21T14:32:36.159Z,73.40
2019-05-21T14:35:05.156Z,73.10
2019-05-21T14:37:33.595Z,73.00
2019-05-21T14:40:02.189Z,73.00
2019-05-21T14:42:30.648Z,72.90
2019-05-21T14:44:59.087Z,73.00
2019-05-21T14:47:27.511Z,72.90
2019-05-21T14:49:55.937Z,72.70
2019-05-21T14:52:24.384Z,72.60
2019-05-21T14:54:52.803Z,72.50
2019-05-21T14:57:21.226Z,72.60
2019-05-21T14:59:49.768Z,72.50
2019-05-21T15:02:18.285Z,72.50
2019-05-21T15:04:47.061Z,72.20
2019-05-21T15:07:15.736Z,72.10
2019-05-21T15:09:44.171Z,72.20
2019-05-21T15:12:12.675Z,72.20
2019-05-21T15:14:41.129Z,72.10
2019-05-21T15:17:09.698Z,72.00
2019-05-21T15:19:38.187Z,72.10
2019-05-21T15:22:06.828Z,71.90
2019-05-21T15:24:35.275Z,72.00
2019-05-21T15:27:03.990Z,72.10
2019-05-21T15:29:32.478Z,72.10
2019-05-21T15:32:00.906Z,72.10
2019-05-21T15:34:29.335Z,72.00
2019-05-21T15:36:58.055Z,72.00
2019-05-21T15:39:26.544Z,72.10
2019-05-21T15:41:55.293Z,72.10
2019-05-21T15:44:23.963Z,72.10
2019-05-21T15:46:52.421Z,71.60
2019-05-21T15:49:35.066Z,71.50
2019-05-21T15:51:51.097Z,71.70
2019-05-21T15:54:22.424Z,71.90
2019-05-21T15:56:50.975Z,71.90
2019-05-21T15:59:19.620Z,71.90
2019-05-21T16:01:48.151Z,71.70
2019-05-21T16:04:17.106Z,72.80
2019-05-21T16:06:45.767Z,71.80
2019-05-21T16:09:15.577Z,71.80
2019-05-21T16:11:43.994Z,71.90
2019-05-21T16:14:12.494Z,71.90
2019-05-21T16:16:40.919Z,72.10
2019-05-21T16:19:09.344Z,71.90
2019-05-21T16:21:37.974Z,71.80
2019-05-21T16:24:06.399Z,71.80
2019-05-21T16:26:34.823Z,72.50
2019-05-21T16:29:03.319Z,71.70
2019-05-21T16:31:31.757Z,71.50
2019-05-21T16:34:00.190Z,71.40
2019-05-21T16:36:28.636Z,71.30
2019-05-21T16:38:57.194Z,71.30
2019-05-21T16:41:25.783Z,71.50
2019-05-21T16:43:54.438Z,71.40
2019-05-21T16:46:22.903Z,71.50
2019-05-21T16:48:51.360Z,71.60
2019-05-21T16:51:19.807Z,71.70
2019-05-21T16:53:48.225Z,71.70
2019-05-21T16:56:16.760Z,71.60
2019-05-21T16:58:45.267Z,71.90
2019-05-21T17:01:15.404Z,71.90
2019-05-21T17:03:43.825Z,72.10
2019-05-21T17:06:12.278Z,72.10
2019-05-21T17:08:40.764Z,71.90
2019-05-21T17:11:09.256Z,71.80
2019-05-21T17:13:37.703Z,71.90
2019-05-21T17:16:06.138Z,71.90
2019-05-21T17:18:34.570Z,71.90
2019-05-21T17:21:03.954Z,72.00
2019-05-21T17:23:32.379Z,72.30
2019-05-21T17:26:00.851Z,72.30
2019-05-21T17:28:29.314Z,72.30
2019-05-21T17:30:57.863Z,72.20
2019-05-21T17:33:26.351Z,72.20
2019-05-21T17:35:55.351Z,72.20
2019-05-21T17:38:24.557Z,72.30
2019-05-21T17:40:53.343Z,72.20
2019-05-21T17:43:21.967Z,72.20
2019-05-21T17:45:50.395Z,72.20
2019-05-21T17:48:18.817Z,72.30
2019-05-21T17:50:47.251Z,72.40
2019-05-21T17:53:15.679Z,72.70
2019-05-21T17:55:44.109Z,72.50
2019-05-21T17:58:12.548Z,72.60
2019-05-21T18:00:51.931Z,72.60
2019-05-21T18:03:20.648Z,72.90
2019-05-21T18:05:49.587Z,72.90
2019-05-21T18:08:18.662Z,73.00
2019-05-21T18:10:47.369Z,73.10
2019-05-21T18:13:17.894Z,74.00
2019-05-21T18:15:46.495Z,73.10
2019-05-21T18:18:15.440Z,73.30
2019-05-21T18:20:45.070Z,73.10
2019-05-21T18:23:13.588Z,73.10
2019-05-21T18:25:42.095Z,73.20
2019-05-21T18:28:10.901Z,73.20
2019-05-21T18:30:39.908Z,73.30
2019-05-21T18:33:08.419Z,73.20
2019-05-21T18:35:36.923Z,73.20
2019-05-21T18:38:05.582Z,73.30
2019-05-21T18:40:34.115Z,73.20
2019-05-21T18:43:02.634Z,73.30
2019-05-21T18:45:31.046Z,73.30
2019-05-21T18:47:59.484Z,73.30
2019-05-21T18:50:35.988Z,73.40
2019-05-21T18:52:58.126Z,73.40
2019-05-21T18:55:26.855Z,73.40
2019-05-21T18:57:55.351Z,73.50
2019-05-21T19:00:24.050Z,73.60
2019-05-21T19:02:52.512Z,73.70
2019-05-21T19:05:21.023Z,73.90
2019-05-21T19:07:49.472Z,73.90
2019-05-21T19:10:18.734Z,74.10
2019-05-21T19:12:48.715Z,74.20
2019-05-21T19:15:17.349Z,74.40
2019-05-21T19:17:45.789Z,74.40
2019-05-21T19:20:15.184Z,74.40
2019-05-21T19:22:43.603Z,74.40
2019-05-21T19:25:12.316Z,74.40
2019-05-21T19:27:40.729Z,74.70
2019-05-21T19:30:12.470Z,74.60
2019-05-21T19:32:40.990Z,74.70
2019-05-21T19:35:11.173Z,74.90
2019-05-21T19:37:39.597Z,75.00
2019-05-21T19:40:08.274Z,74.80
2019-05-21T19:42:36.714Z,75.00
2019-05-21T19:45:08.260Z,75.10
2019-05-21T19:47:36.765Z,75.10
2019-05-21T19:50:08.817Z,75.10
2019-05-21T19:52:37.319Z,75.20
2019-05-21T19:55:06.814Z,75.30
2019-05-21T19:57:35.378Z,75.50
2019-05-21T20:00:05.757Z,75.50
2019-05-21T20:02:35.903Z,75.50
2019-05-21T20:05:07.738Z,75.60
2019-05-21T20:07:36.759Z,75.70
2019-05-21T20:10:07.218Z,75.80
2019-05-21T20:12:36.346Z,75.90
2019-05-21T20:15:07.767Z,75.80
2019-05-21T20:17:37.843Z,76.00
2019-05-21T20:20:08.290Z,76.10
2019-05-21T20:22:36.703Z,76.10
2019-05-21T20:25:06.251Z,76.10
2019-05-21T20:27:35.358Z,76.30
2019-05-21T20:30:12.671Z,76.10
2019-05-21T20:32:41.595Z,76.20
2019-05-21T20:35:11.972Z,76.20
2019-05-21T20:37:41.179Z,76.30
2019-05-21T20:40:11.259Z,76.30
2019-05-21T20:42:40.589Z,76.20
2019-05-21T20:45:11.727Z,76.30
2019-05-21T20:47:40.499Z,76.30
2019-05-21T20:50:12.362Z,76.30
2019-05-21T20:52:41.974Z,76.30
2019-05-21T20:55:11.094Z,76.10
2019-05-21T20:57:39.628Z,76.20
2019-05-21T21:00:10.813Z,76.30
2019-05-21T21:02:40.602Z,76.30
2019-05-21T21:05:09.840Z,76.30
2019-05-21T21:07:38.833Z,76.40
2019-05-21T21:10:08.887Z,76.50
2019-05-21T21:12:38.481Z,76.40
2019-05-21T21:15:07.138Z,76.40
2019-05-21T21:17:37.085Z,76.50
2019-05-21T21:20:07.822Z,76.50
2019-05-21T21:22:36.352Z,76.50
2019-05-21T21:25:06.609Z,76.60
2019-05-21T21:27:36.250Z,76.70
2019-05-21T21:30:08.615Z,76.70
2019-05-21T21:32:37.698Z,76.80
2019-05-21T21:35:06.623Z,76.60
2019-05-21T21:37:35.267Z,76.70
2019-05-21T21:40:06.524Z,76.90
2019-05-21T21:42:35.123Z,76.70
2019-05-21T21:45:05.190Z,76.70
2019-05-21T21:47:33.703Z,76.70
2019-05-21T21:50:03.342Z,76.70
2019-05-21T21:52:31.786Z,76.60
2019-05-21T21:55:00.487Z,76.50
2019-05-21T21:57:29.104Z,76.40
2019-05-21T21:59:57.964Z,76.20
2019-05-21T22:02:30.882Z,76.30
2019-05-21T22:05:00.365Z,76.10
2019-05-21T22:07:28.923Z,77.00
2019-05-21T22:09:58.215Z,76.00
2019-05-21T22:12:26.937Z,75.90
2019-05-21T22:14:58.439Z,75.80
2019-05-21T22:17:27.218Z,75.70
2019-05-21T22:19:56.219Z,75.70
2019-05-21T22:22:24.693Z,75.60
2019-05-21T22:24:53.267Z,75.50
2019-05-21T22:27:21.760Z,75.30
2019-05-21T22:29:50.183Z,75.30
2019-05-21T22:32:18.653Z,75.30
2019-05-21T22:34:47.082Z,75.10
2019-05-21T22:37:17.678Z,75.10
2019-05-21T22:39:47.664Z,74.90
2019-05-21T22:42:16.809Z,75.90
2019-05-21T22:44:45.879Z,75.00
2019-05-21T22:47:15.176Z,74.80
2019-05-21T22:49:43.596Z,74.70
2019-05-21T22:52:12.805Z,74.80
2019-05-21T22:54:41.691Z,74.50
2019-05-21T22:57:10.168Z,74.50
2019-05-21T22:59:38.600Z,74.40
2019-05-21T23:02:09.255Z,74.30
2019-05-21T23:04:37.827Z,75.20
2019-05-21T23:07:06.535Z,74.20
2019-05-21T23:09:35.632Z,74.20
2019-05-21T23:12:06.614Z,74.10
2019-05-21T23:14:35.358Z,73.90
2019-05-21T23:17:05.488Z,73.90
2019-05-21T23:19:34.147Z,73.90
2019-05-21T23:22:02.678Z,74.60
2019-05-21T23:24:33.167Z,73.90
2019-05-21T23:27:02.066Z,73.90
2019-05-21T23:29:30.728Z,73.80
2019-05-21T23:31:59.253Z,73.70
2019-05-21T23:34:28.796Z,73.60
2019-05-21T23:36:58.163Z,73.70
2019-05-21T23:39:28.074Z,73.50
2019-05-21T23:41:56.773Z,73.40
2019-05-21T23:44:25.216Z,73.40
2019-05-21T23:46:53.725Z,73.40
2019-05-21T23:49:22.334Z,73.30
2019-05-21T23:51:52.367Z,73.30
2019-05-21T23:54:21.474Z,73.40
2019-05-21T23:56:50.279Z,73.30
2019-05-21T23:59:20.347Z,73.10
